sensor_id;sensor_type;location;lat;lon;timestamp;temperature;humidity
59075;DHT22;44860;53.020;6.738;2023-08-06T00:00:07;15.00;99.90
59075;DHT22;44860;53.020;6.738;2023-08-06T00:02:34;15.00;99.90
59075;DHT22;44860;53.020;6.738;2023-08-06T00:04:59;15.00;99.90
59075;DHT22;44860;53.020;6.738;2023-08-06T00:07:25;15.00;99.90
59075;DHT22;44860;53.020;6.738;2023-08-06T00:09:51;15.00;99.90
59075;DHT22;44860;53.020;6.738;2023-08-06T00:12:16;15.00;99.90
59075;DHT22;44860;53.020;6.738;2023-08-06T00:14:42;15.00;99.90
59075;DHT22;44860;53.020;6.738;2023-08-06T00:17:08;15.00;99.90
59075;DHT22;44860;53.020;6.738;2023-08-06T00:19:34;14.90;99.90
59075;DHT22;44860;53.020;6.738;2023-08-06T00:21:59;14.90;99.90
59075;DHT22;44860;53.020;6.738;2023-08-06T00:24:25;14.90;99.90
59075;DHT22;44860;53.020;6.738;2023-08-06T00:26:51;14.80;99.90
59075;DHT22;44860;53.020;6.738;2023-08-06T00:29:16;14.80;99.90
59075;DHT22;44860;53.020;6.738;2023-08-06T00:31:42;14.80;99.90
59075;DHT22;44860;53.020;6.738;2023-08-06T00:34:08;14.80;99.90
59075;DHT22;44860;53.020;6.738;2023-08-06T00:36:33;14.80;99.90
59075;DHT22;44860;53.020;6.738;2023-08-06T00:38:59;14.80;99.90
59075;DHT22;44860;53.020;6.738;2023-08-06T00:41:25;14.80;99.90
59075;DHT22;44860;53.020;6.738;2023-08-06T00:43:51;14.80;99.90
59075;DHT22;44860;53.020;6.738;2023-08-06T00:46:16;14.80;99.90
59075;DHT22;44860;53.020;6.738;2023-08-06T00:48:42;14.80;99.90
59075;DHT22;44860;53.020;6.738;2023-08-06T00:51:10;14.80;99.90
59075;DHT22;44860;53.020;6.738;2023-08-06T00:53:37;14.80;99.90
59075;DHT22;44860;53.020;6.738;2023-08-06T00:56:03;14.80;99.90
59075;DHT22;44860;53.020;6.738;2023-08-06T00:58:29;14.80;99.90
59075;DHT22;44860;53.020;6.738;2023-08-06T01:00:55;14.80;99.90
59075;DHT22;44860;53.020;6.738;2023-08-06T01:03:20;14.80;99.90
59075;DHT22;44860;53.020;6.738;2023-08-06T01:05:46;14.80;99.90
59075;DHT22;44860;53.020;6.738;2023-08-06T01:13:47;14.80;99.90
59075;DHT22;44860;53.020;6.738;2023-08-06T01:16:16;14.80;99.90
59075;DHT22;44860;53.020;6.738;2023-08-06T01:18:42;14.80;99.90
59075;DHT22;44860;53.020;6.738;2023-08-06T01:21:14;14.80;99.90
59075;DHT22;44860;53.020;6.738;2023-08-06T01:23:41;14.80;99.90
59075;DHT22;44860;53.020;6.738;2023-08-06T01:26:27;14.80;99.90
59075;DHT22;44860;53.020;6.738;2023-08-06T01:29:19;14.80;99.90
59075;DHT22;44860;53.020;6.738;2023-08-06T01:31:48;14.80;99.90
59075;DHT22;44860;53.020;6.738;2023-08-06T01:34:24;14.80;99.90
59075;DHT22;44860;53.020;6.738;2023-08-06T01:36:51;14.80;99.90
59075;DHT22;44860;53.020;6.738;2023-08-06T01:39:17;14.80;99.90
59075;DHT22;44860;53.020;6.738;2023-08-06T01:41:47;14.80;99.90
59075;DHT22;44860;53.020;6.738;2023-08-06T01:44:13;14.80;99.90
59075;DHT22;44860;53.020;6.738;2023-08-06T01:46:39;14.80;99.90
59075;DHT22;44860;53.020;6.738;2023-08-06T01:49:04;14.80;99.90
59075;DHT22;44860;53.020;6.738;2023-08-06T01:51:30;14.80;99.90
59075;DHT22;44860;53.020;6.738;2023-08-06T01:53:56;14.80;99.90
59075;DHT22;44860;53.020;6.738;2023-08-06T01:56:21;14.80;99.90
59075;DHT22;44860;53.020;6.738;2023-08-06T01:58:47;14.80;99.90
59075;DHT22;44860;53.020;6.738;2023-08-06T02:01:13;14.80;99.90
59075;DHT22;44860;53.020;6.738;2023-08-06T02:03:38;14.80;99.90
59075;DHT22;44860;53.020;6.738;2023-08-06T02:06:04;14.80;99.90
59075;DHT22;44860;53.020;6.738;2023-08-06T02:08:30;14.80;99.90
59075;DHT22;44860;53.020;6.738;2023-08-06T02:10:56;14.80;99.90
59075;DHT22;44860;53.020;6.738;2023-08-06T02:13:23;14.80;99.90
59075;DHT22;44860;53.020;6.738;2023-08-06T02:15:49;14.80;99.90
59075;DHT22;44860;53.020;6.738;2023-08-06T02:18:15;14.80;99.90
59075;DHT22;44860;53.020;6.738;2023-08-06T02:20:41;14.80;99.90
59075;DHT22;44860;53.020;6.738;2023-08-06T02:23:07;14.80;99.90
59075;DHT22;44860;53.020;6.738;2023-08-06T02:25:33;14.70;99.90
59075;DHT22;44860;53.020;6.738;2023-08-06T02:27:59;14.80;99.90
59075;DHT22;44860;53.020;6.738;2023-08-06T02:30:24;14.80;99.90
59075;DHT22;44860;53.020;6.738;2023-08-06T02:32:50;14.80;99.90
59075;DHT22;44860;53.020;6.738;2023-08-06T02:35:16;14.80;99.90
59075;DHT22;44860;53.020;6.738;2023-08-06T02:37:41;14.80;99.90
59075;DHT22;44860;53.020;6.738;2023-08-06T02:40:07;14.80;99.90
59075;DHT22;44860;53.020;6.738;2023-08-06T02:42:33;14.80;99.90
59075;DHT22;44860;53.020;6.738;2023-08-06T02:44:59;14.80;99.90
59075;DHT22;44860;53.020;6.738;2023-08-06T02:47:25;14.80;99.90
59075;DHT22;44860;53.020;6.738;2023-08-06T02:49:50;14.80;99.90
59075;DHT22;44860;53.020;6.738;2023-08-06T02:52:16;14.80;99.90
59075;DHT22;44860;53.020;6.738;2023-08-06T02:54:42;14.80;99.90
59075;DHT22;44860;53.020;6.738;2023-08-06T02:57:08;14.80;99.90
59075;DHT22;44860;53.020;6.738;2023-08-06T02:59:34;14.80;99.90
59075;DHT22;44860;53.020;6.738;2023-08-06T03:01:59;14.80;99.90
59075;DHT22;44860;53.020;6.738;2023-08-06T03:04:25;14.80;99.90
59075;DHT22;44860;53.020;6.738;2023-08-06T03:06:51;14.80;99.90
59075;DHT22;44860;53.020;6.738;2023-08-06T03:09:17;14.80;99.90
59075;DHT22;44860;53.020;6.738;2023-08-06T03:11:43;14.80;99.90
59075;DHT22;44860;53.020;6.738;2023-08-06T03:14:09;14.80;99.90
59075;DHT22;44860;53.020;6.738;2023-08-06T03:16:35;14.80;99.90
59075;DHT22;44860;53.020;6.738;2023-08-06T03:19:00;14.80;99.90
59075;DHT22;44860;53.020;6.738;2023-08-06T03:21:26;14.80;99.90
59075;DHT22;44860;53.020;6.738;2023-08-06T03:23:52;14.80;99.90
59075;DHT22;44860;53.020;6.738;2023-08-06T03:26:18;14.80;99.90
59075;DHT22;44860;53.020;6.738;2023-08-06T03:28:43;14.80;99.90
59075;DHT22;44860;53.020;6.738;2023-08-06T03:31:09;14.80;99.90
59075;DHT22;44860;53.020;6.738;2023-08-06T03:33:35;14.80;99.90
59075;DHT22;44860;53.020;6.738;2023-08-06T03:36:01;14.80;99.90
59075;DHT22;44860;53.020;6.738;2023-08-06T03:38:26;14.80;99.90
59075;DHT22;44860;53.020;6.738;2023-08-06T03:40:53;14.70;99.90
59075;DHT22;44860;53.020;6.738;2023-08-06T03:43:18;14.70;99.90
59075;DHT22;44860;53.020;6.738;2023-08-06T03:45:44;14.70;99.90
59075;DHT22;44860;53.020;6.738;2023-08-06T03:48:10;14.70;99.90
59075;DHT22;44860;53.020;6.738;2023-08-06T03:50:36;14.70;99.90
59075;DHT22;44860;53.020;6.738;2023-08-06T03:53:02;14.70;99.90
59075;DHT22;44860;53.020;6.738;2023-08-06T03:55:28;14.60;99.90
59075;DHT22;44860;53.020;6.738;2023-08-06T03:57:53;14.60;99.90
59075;DHT22;44860;53.020;6.738;2023-08-06T04:00:19;14.60;99.90
59075;DHT22;44860;53.020;6.738;2023-08-06T04:02:45;14.50;99.90
59075;DHT22;44860;53.020;6.738;2023-08-06T04:05:10;14.50;99.90
59075;DHT22;44860;53.020;6.738;2023-08-06T04:07:36;14.50;99.90
59075;DHT22;44860;53.020;6.738;2023-08-06T04:10:04;14.50;99.90
59075;DHT22;44860;53.020;6.738;2023-08-06T04:12:30;14.40;99.90
59075;DHT22;44860;53.020;6.738;2023-08-06T04:14:58;14.40;99.90
59075;DHT22;44860;53.020;6.738;2023-08-06T04:17:24;14.40;99.90
59075;DHT22;44860;53.020;6.738;2023-08-06T04:19:51;14.40;99.90
59075;DHT22;44860;53.020;6.738;2023-08-06T04:22:18;14.30;99.90
59075;DHT22;44860;53.020;6.738;2023-08-06T04:24:43;14.40;99.90
59075;DHT22;44860;53.020;6.738;2023-08-06T04:27:10;14.40;99.90
59075;DHT22;44860;53.020;6.738;2023-08-06T04:29:36;14.40;99.90
59075;DHT22;44860;53.020;6.738;2023-08-06T04:32:05;14.40;99.90
59075;DHT22;44860;53.020;6.738;2023-08-06T04:34:31;14.40;99.90
59075;DHT22;44860;53.020;6.738;2023-08-06T04:36:57;14.40;99.90
59075;DHT22;44860;53.020;6.738;2023-08-06T04:39:23;14.40;99.90
59075;DHT22;44860;53.020;6.738;2023-08-06T04:41:48;14.30;99.90
59075;DHT22;44860;53.020;6.738;2023-08-06T04:44:14;14.30;99.90
59075;DHT22;44860;53.020;6.738;2023-08-06T04:46:39;14.30;99.90
59075;DHT22;44860;53.020;6.738;2023-08-06T04:49:05;14.20;99.90
59075;DHT22;44860;53.020;6.738;2023-08-06T04:51:31;14.20;99.90
59075;DHT22;44860;53.020;6.738;2023-08-06T04:53:57;14.20;99.90
59075;DHT22;44860;53.020;6.738;2023-08-06T04:56:23;14.20;99.90
59075;DHT22;44860;53.020;6.738;2023-08-06T04:58:49;14.20;99.90
59075;DHT22;44860;53.020;6.738;2023-08-06T05:01:15;14.20;99.90
59075;DHT22;44860;53.020;6.738;2023-08-06T05:03:41;14.20;99.90
59075;DHT22;44860;53.020;6.738;2023-08-06T05:06:07;14.20;99.90
59075;DHT22;44860;53.020;6.738;2023-08-06T05:08:32;14.10;99.90
59075;DHT22;44860;53.020;6.738;2023-08-06T05:10:58;14.10;99.90
59075;DHT22;44860;53.020;6.738;2023-08-06T05:13:24;14.10;99.90
59075;DHT22;44860;53.020;6.738;2023-08-06T05:15:51;14.10;99.90
59075;DHT22;44860;53.020;6.738;2023-08-06T05:18:18;14.10;99.90
59075;DHT22;44860;53.020;6.738;2023-08-06T05:20:44;14.10;99.90
59075;DHT22;44860;53.020;6.738;2023-08-06T05:23:10;14.10;99.90
59075;DHT22;44860;53.020;6.738;2023-08-06T05:25:39;14.10;99.90
59075;DHT22;44860;53.020;6.738;2023-08-06T05:28:05;14.10;99.90
59075;DHT22;44860;53.020;6.738;2023-08-06T05:30:31;14.10;99.90
59075;DHT22;44860;53.020;6.738;2023-08-06T05:32:56;14.10;99.90
59075;DHT22;44860;53.020;6.738;2023-08-06T05:35:22;14.10;99.90
59075;DHT22;44860;53.020;6.738;2023-08-06T05:37:49;14.10;99.90
59075;DHT22;44860;53.020;6.738;2023-08-06T05:40:15;14.20;99.90
59075;DHT22;44860;53.020;6.738;2023-08-06T05:42:41;14.20;99.90
59075;DHT22;44860;53.020;6.738;2023-08-06T05:45:07;14.20;99.90
59075;DHT22;44860;53.020;6.738;2023-08-06T05:47:33;14.30;99.90
59075;DHT22;44860;53.020;6.738;2023-08-06T05:49:59;14.40;99.90
59075;DHT22;44860;53.020;6.738;2023-08-06T05:52:25;14.40;99.90
59075;DHT22;44860;53.020;6.738;2023-08-06T05:54:51;14.40;99.90
59075;DHT22;44860;53.020;6.738;2023-08-06T05:57:17;14.50;99.90
59075;DHT22;44860;53.020;6.738;2023-08-06T05:59:43;14.50;99.90
59075;DHT22;44860;53.020;6.738;2023-08-06T06:02:09;14.60;99.90
59075;DHT22;44860;53.020;6.738;2023-08-06T06:04:34;14.60;99.90
59075;DHT22;44860;53.020;6.738;2023-08-06T06:07:00;14.60;99.90
59075;DHT22;44860;53.020;6.738;2023-08-06T06:09:26;14.70;99.90
59075;DHT22;44860;53.020;6.738;2023-08-06T06:11:52;14.80;99.90
59075;DHT22;44860;53.020;6.738;2023-08-06T06:14:18;14.80;99.90
59075;DHT22;44860;53.020;6.738;2023-08-06T06:16:44;14.80;99.90
59075;DHT22;44860;53.020;6.738;2023-08-06T06:19:10;14.90;99.90
59075;DHT22;44860;53.020;6.738;2023-08-06T06:21:35;14.90;99.90
59075;DHT22;44860;53.020;6.738;2023-08-06T06:24:01;14.90;99.90
59075;DHT22;44860;53.020;6.738;2023-08-06T06:26:28;15.00;99.90
59075;DHT22;44860;53.020;6.738;2023-08-06T06:28:53;15.00;99.90
59075;DHT22;44860;53.020;6.738;2023-08-06T06:31:19;15.10;99.90
59075;DHT22;44860;53.020;6.738;2023-08-06T06:33:45;15.10;99.90
59075;DHT22;44860;53.020;6.738;2023-08-06T06:36:10;15.20;99.90
59075;DHT22;44860;53.020;6.738;2023-08-06T06:38:37;15.30;99.90
59075;DHT22;44860;53.020;6.738;2023-08-06T06:41:02;15.30;99.90
59075;DHT22;44860;53.020;6.738;2023-08-06T06:43:28;15.40;99.90
59075;DHT22;44860;53.020;6.738;2023-08-06T06:46:01;15.40;99.90
59075;DHT22;44860;53.020;6.738;2023-08-06T06:48:28;15.40;99.90
59075;DHT22;44860;53.020;6.738;2023-08-06T06:50:54;15.50;99.90
59075;DHT22;44860;53.020;6.738;2023-08-06T06:53:20;15.50;99.90
59075;DHT22;44860;53.020;6.738;2023-08-06T06:55:45;15.50;99.90
59075;DHT22;44860;53.020;6.738;2023-08-06T06:58:15;15.60;99.90
59075;DHT22;44860;53.020;6.738;2023-08-06T07:00:42;15.60;99.90
59075;DHT22;44860;53.020;6.738;2023-08-06T07:03:07;15.60;99.90
59075;DHT22;44860;53.020;6.738;2023-08-06T07:05:33;15.60;99.90
59075;DHT22;44860;53.020;6.738;2023-08-06T07:07:59;15.60;99.90
59075;DHT22;44860;53.020;6.738;2023-08-06T07:10:25;15.70;99.90
59075;DHT22;44860;53.020;6.738;2023-08-06T07:12:51;15.70;99.90
59075;DHT22;44860;53.020;6.738;2023-08-06T07:15:17;15.70;99.90
59075;DHT22;44860;53.020;6.738;2023-08-06T07:17:43;15.80;99.90
59075;DHT22;44860;53.020;6.738;2023-08-06T07:20:09;15.80;99.90
59075;DHT22;44860;53.020;6.738;2023-08-06T07:22:35;15.80;99.90
59075;DHT22;44860;53.020;6.738;2023-08-06T07:25:01;15.90;99.90
59075;DHT22;44860;53.020;6.738;2023-08-06T07:27:27;15.90;99.90
59075;DHT22;44860;53.020;6.738;2023-08-06T07:29:52;16.00;99.90
59075;DHT22;44860;53.020;6.738;2023-08-06T07:32:18;16.00;99.90
59075;DHT22;44860;53.020;6.738;2023-08-06T07:34:44;16.00;99.90
59075;DHT22;44860;53.020;6.738;2023-08-06T07:37:09;16.10;99.90
59075;DHT22;44860;53.020;6.738;2023-08-06T07:39:35;16.10;99.90
59075;DHT22;44860;53.020;6.738;2023-08-06T07:42:03;16.20;99.90
59075;DHT22;44860;53.020;6.738;2023-08-06T07:44:31;16.20;99.90
59075;DHT22;44860;53.020;6.738;2023-08-06T07:46:57;16.20;99.90
59075;DHT22;44860;53.020;6.738;2023-08-06T07:49:22;16.30;99.90
59075;DHT22;44860;53.020;6.738;2023-08-06T07:51:48;16.30;99.90
59075;DHT22;44860;53.020;6.738;2023-08-06T07:54:14;16.40;99.90
59075;DHT22;44860;53.020;6.738;2023-08-06T07:56:39;16.40;99.90
59075;DHT22;44860;53.020;6.738;2023-08-06T07:59:05;16.50;99.90
59075;DHT22;44860;53.020;6.738;2023-08-06T08:01:31;16.50;99.90
59075;DHT22;44860;53.020;6.738;2023-08-06T08:03:56;16.60;99.90
59075;DHT22;44860;53.020;6.738;2023-08-06T08:06:22;16.70;99.90
59075;DHT22;44860;53.020;6.738;2023-08-06T08:08:48;16.70;99.90
59075;DHT22;44860;53.020;6.738;2023-08-06T08:11:14;16.70;99.90
59075;DHT22;44860;53.020;6.738;2023-08-06T08:13:41;16.70;99.90
59075;DHT22;44860;53.020;6.738;2023-08-06T08:16:07;16.80;99.90
59075;DHT22;44860;53.020;6.738;2023-08-06T08:18:33;16.90;99.90
59075;DHT22;44860;53.020;6.738;2023-08-06T08:20:58;17.00;99.90
59075;DHT22;44860;53.020;6.738;2023-08-06T08:23:24;17.10;99.90
59075;DHT22;44860;53.020;6.738;2023-08-06T08:25:50;17.10;99.90
59075;DHT22;44860;53.020;6.738;2023-08-06T08:28:16;17.20;99.90
59075;DHT22;44860;53.020;6.738;2023-08-06T08:30:42;17.30;99.90
59075;DHT22;44860;53.020;6.738;2023-08-06T08:33:08;17.40;99.90
59075;DHT22;44860;53.020;6.738;2023-08-06T08:35:34;17.40;99.90
59075;DHT22;44860;53.020;6.738;2023-08-06T08:37:59;17.50;99.90
59075;DHT22;44860;53.020;6.738;2023-08-06T08:40:31;17.50;99.90
59075;DHT22;44860;53.020;6.738;2023-08-06T08:42:57;17.60;99.90
59075;DHT22;44860;53.020;6.738;2023-08-06T08:45:26;17.70;99.90
59075;DHT22;44860;53.020;6.738;2023-08-06T08:47:54;17.80;99.90
59075;DHT22;44860;53.020;6.738;2023-08-06T08:50:21;17.90;99.90
59075;DHT22;44860;53.020;6.738;2023-08-06T08:52:47;18.10;99.90
59075;DHT22;44860;53.020;6.738;2023-08-06T08:55:15;18.10;99.90
59075;DHT22;44860;53.020;6.738;2023-08-06T08:57:41;18.20;99.90
59075;DHT22;44860;53.020;6.738;2023-08-06T09:00:07;18.30;99.90
59075;DHT22;44860;53.020;6.738;2023-08-06T09:02:33;18.40;99.90
59075;DHT22;44860;53.020;6.738;2023-08-06T09:05:00;18.50;99.90
59075;DHT22;44860;53.020;6.738;2023-08-06T09:07:33;18.60;99.90
59075;DHT22;44860;53.020;6.738;2023-08-06T09:10:02;18.60;99.90
59075;DHT22;44860;53.020;6.738;2023-08-06T09:12:29;18.70;99.90
59075;DHT22;44860;53.020;6.738;2023-08-06T09:14:55;18.80;99.90
59075;DHT22;44860;53.020;6.738;2023-08-06T09:17:20;18.90;99.90
59075;DHT22;44860;53.020;6.738;2023-08-06T09:19:47;18.90;99.90
59075;DHT22;44860;53.020;6.738;2023-08-06T09:22:14;19.00;99.90
59075;DHT22;44860;53.020;6.738;2023-08-06T09:24:41;19.00;99.90
59075;DHT22;44860;53.020;6.738;2023-08-06T09:27:14;19.10;99.90
59075;DHT22;44860;53.020;6.738;2023-08-06T09:29:41;19.20;99.90
59075;DHT22;44860;53.020;6.738;2023-08-06T09:32:07;19.20;99.90
59075;DHT22;44860;53.020;6.738;2023-08-06T09:34:33;19.30;99.90
59075;DHT22;44860;53.020;6.738;2023-08-06T09:36:58;19.40;99.90
59075;DHT22;44860;53.020;6.738;2023-08-06T09:39:29;19.50;99.90
59075;DHT22;44860;53.020;6.738;2023-08-06T09:41:59;19.60;99.90
59075;DHT22;44860;53.020;6.738;2023-08-06T09:44:27;19.70;99.90
59075;DHT22;44860;53.020;6.738;2023-08-06T09:46:58;19.80;99.90
59075;DHT22;44860;53.020;6.738;2023-08-06T09:51:59;20.00;99.90
59075;DHT22;44860;53.020;6.738;2023-08-06T09:54:28;20.10;99.90
59075;DHT22;44860;53.020;6.738;2023-08-06T09:56:56;20.10;99.90
59075;DHT22;44860;53.020;6.738;2023-08-06T09:59:23;20.10;99.90
59075;DHT22;44860;53.020;6.738;2023-08-06T10:01:49;20.20;99.90
59075;DHT22;44860;53.020;6.738;2023-08-06T10:04:15;20.40;99.90
59075;DHT22;44860;53.020;6.738;2023-08-06T10:06:47;20.40;99.90
59075;DHT22;44860;53.020;6.738;2023-08-06T10:09:16;20.40;99.90
59075;DHT22;44860;53.020;6.738;2023-08-06T10:11:43;20.50;99.90
59075;DHT22;44860;53.020;6.738;2023-08-06T10:14:16;20.50;99.90
59075;DHT22;44860;53.020;6.738;2023-08-06T10:16:44;20.60;99.90
59075;DHT22;44860;53.020;6.738;2023-08-06T10:19:11;20.70;99.90
59075;DHT22;44860;53.020;6.738;2023-08-06T10:21:40;20.80;99.90
59075;DHT22;44860;53.020;6.738;2023-08-06T10:24:14;20.80;99.90
59075;DHT22;44860;53.020;6.738;2023-08-06T10:26:40;20.80;99.90
59075;DHT22;44860;53.020;6.738;2023-08-06T10:29:37;20.90;99.90
59075;DHT22;44860;53.020;6.738;2023-08-06T10:32:03;20.90;99.90
59075;DHT22;44860;53.020;6.738;2023-08-06T10:34:58;21.00;99.90
59075;DHT22;44860;53.020;6.738;2023-08-06T10:37:36;21.00;99.90
59075;DHT22;44860;53.020;6.738;2023-08-06T10:40:02;20.90;99.90
59075;DHT22;44860;53.020;6.738;2023-08-06T10:42:29;20.90;99.90
59075;DHT22;44860;53.020;6.738;2023-08-06T10:45:14;20.80;99.90
59075;DHT22;44860;53.020;6.738;2023-08-06T10:47:41;20.80;99.90
59075;DHT22;44860;53.020;6.738;2023-08-06T10:50:12;20.70;99.90
59075;DHT22;44860;53.020;6.738;2023-08-06T10:52:39;20.70;99.90
59075;DHT22;44860;53.020;6.738;2023-08-06T10:55:05;20.60;99.90
59075;DHT22;44860;53.020;6.738;2023-08-06T10:57:31;20.60;99.90
59075;DHT22;44860;53.020;6.738;2023-08-06T10:59:57;20.50;99.90
59075;DHT22;44860;53.020;6.738;2023-08-06T11:02:22;20.60;99.90
59075;DHT22;44860;53.020;6.738;2023-08-06T11:04:49;20.60;99.90
59075;DHT22;44860;53.020;6.738;2023-08-06T11:07:14;20.60;99.90
59075;DHT22;44860;53.020;6.738;2023-08-06T11:09:40;20.50;99.90
59075;DHT22;44860;53.020;6.738;2023-08-06T11:12:12;20.60;99.90
59075;DHT22;44860;53.020;6.738;2023-08-06T11:14:49;20.60;99.90
59075;DHT22;44860;53.020;6.738;2023-08-06T11:17:15;20.50;99.90
59075;DHT22;44860;53.020;6.738;2023-08-06T11:19:41;20.50;99.90
59075;DHT22;44860;53.020;6.738;2023-08-06T11:22:07;20.50;99.90
59075;DHT22;44860;53.020;6.738;2023-08-06T11:24:33;20.50;99.90
59075;DHT22;44860;53.020;6.738;2023-08-06T11:26:58;20.50;99.90
59075;DHT22;44860;53.020;6.738;2023-08-06T11:29:24;20.50;99.90
59075;DHT22;44860;53.020;6.738;2023-08-06T11:31:50;20.50;99.90
59075;DHT22;44860;53.020;6.738;2023-08-06T11:34:15;20.50;99.90
59075;DHT22;44860;53.020;6.738;2023-08-06T11:36:42;20.50;99.90
59075;DHT22;44860;53.020;6.738;2023-08-06T11:39:09;20.40;99.90
59075;DHT22;44860;53.020;6.738;2023-08-06T11:41:36;20.40;99.90
59075;DHT22;44860;53.020;6.738;2023-08-06T11:44:05;20.40;99.90
59075;DHT22;44860;53.020;6.738;2023-08-06T11:46:53;20.30;99.90
59075;DHT22;44860;53.020;6.738;2023-08-06T11:54:36;20.50;99.90
59075;DHT22;44860;53.020;6.738;2023-08-06T11:57:08;20.50;99.90
59075;DHT22;44860;53.020;6.738;2023-08-06T11:59:34;20.50;99.90
59075;DHT22;44860;53.020;6.738;2023-08-06T12:02:03;20.60;99.90
59075;DHT22;44860;53.020;6.738;2023-08-06T12:04:31;20.70;99.90
59075;DHT22;44860;53.020;6.738;2023-08-06T12:07:05;20.90;99.90
59075;DHT22;44860;53.020;6.738;2023-08-06T12:09:33;21.00;99.90
59075;DHT22;44860;53.020;6.738;2023-08-06T12:11:59;21.10;99.90
59075;DHT22;44860;53.020;6.738;2023-08-06T12:14:25;21.30;99.90
59075;DHT22;44860;53.020;6.738;2023-08-06T12:16:50;21.40;99.90
59075;DHT22;44860;53.020;6.738;2023-08-06T12:19:16;21.50;99.90
59075;DHT22;44860;53.020;6.738;2023-08-06T12:21:42;21.70;99.90
59075;DHT22;44860;53.020;6.738;2023-08-06T12:24:08;21.80;99.90
59075;DHT22;44860;53.020;6.738;2023-08-06T12:26:35;21.80;99.90
59075;DHT22;44860;53.020;6.738;2023-08-06T12:29:01;21.90;99.90
59075;DHT22;44860;53.020;6.738;2023-08-06T12:31:28;22.00;99.90
59075;DHT22;44860;53.020;6.738;2023-08-06T12:33:53;22.00;99.90
59075;DHT22;44860;53.020;6.738;2023-08-06T12:36:20;22.00;99.90
59075;DHT22;44860;53.020;6.738;2023-08-06T12:38:46;22.00;99.90
59075;DHT22;44860;53.020;6.738;2023-08-06T12:41:12;22.00;99.90
59075;DHT22;44860;53.020;6.738;2023-08-06T12:43:38;22.10;99.90
59075;DHT22;44860;53.020;6.738;2023-08-06T12:46:03;22.20;99.90
59075;DHT22;44860;53.020;6.738;2023-08-06T12:48:29;22.30;99.90
59075;DHT22;44860;53.020;6.738;2023-08-06T12:50:55;22.40;99.90
59075;DHT22;44860;53.020;6.738;2023-08-06T12:53:21;22.60;99.90
59075;DHT22;44860;53.020;6.738;2023-08-06T12:55:48;22.70;99.90
59075;DHT22;44860;53.020;6.738;2023-08-06T12:58:14;22.90;99.90
59075;DHT22;44860;53.020;6.738;2023-08-06T13:00:40;23.00;99.10
59075;DHT22;44860;53.020;6.738;2023-08-06T13:03:05;23.00;95.50
59075;DHT22;44860;53.020;6.738;2023-08-06T13:05:31;23.00;92.40
59075;DHT22;44860;53.020;6.738;2023-08-06T13:07:57;23.10;93.30
59075;DHT22;44860;53.020;6.738;2023-08-06T13:10:22;23.10;93.30
59075;DHT22;44860;53.020;6.738;2023-08-06T13:12:49;23.20;92.30
59075;DHT22;44860;53.020;6.738;2023-08-06T13:15:15;23.40;93.20
59075;DHT22;44860;53.020;6.738;2023-08-06T13:17:42;23.40;90.70
59075;DHT22;44860;53.020;6.738;2023-08-06T13:20:08;23.50;88.20
59075;DHT22;44860;53.020;6.738;2023-08-06T13:22:34;23.50;84.30
59075;DHT22;44860;53.020;6.738;2023-08-06T13:24:59;23.60;82.40
59075;DHT22;44860;53.020;6.738;2023-08-06T13:27:25;23.60;85.00
59075;DHT22;44860;53.020;6.738;2023-08-06T13:29:50;23.60;84.40
59075;DHT22;44860;53.020;6.738;2023-08-06T13:32:16;23.50;82.00
59075;DHT22;44860;53.020;6.738;2023-08-06T13:34:42;23.40;84.20
59075;DHT22;44860;53.020;6.738;2023-08-06T13:37:07;23.40;85.00
59075;DHT22;44860;53.020;6.738;2023-08-06T13:39:33;23.50;89.00
59075;DHT22;44860;53.020;6.738;2023-08-06T13:41:59;23.50;89.80
59075;DHT22;44860;53.020;6.738;2023-08-06T13:44:24;23.60;89.90
59075;DHT22;44860;53.020;6.738;2023-08-06T13:46:50;23.60;90.10
59075;DHT22;44860;53.020;6.738;2023-08-06T13:49:16;23.60;89.50
59075;DHT22;44860;53.020;6.738;2023-08-06T13:51:41;23.60;91.30
59075;DHT22;44860;53.020;6.738;2023-08-06T13:54:07;23.60;89.80
59075;DHT22;44860;53.020;6.738;2023-08-06T13:56:34;23.60;90.70
59075;DHT22;44860;53.020;6.738;2023-08-06T13:59:00;23.60;89.40
59075;DHT22;44860;53.020;6.738;2023-08-06T14:01:26;23.50;90.30
59075;DHT22;44860;53.020;6.738;2023-08-06T14:03:52;23.50;91.70
59075;DHT22;44860;53.020;6.738;2023-08-06T14:06:19;23.40;89.40
59075;DHT22;44860;53.020;6.738;2023-08-06T14:08:44;23.30;90.50
59075;DHT22;44860;53.020;6.738;2023-08-06T14:11:10;23.20;90.30
59075;DHT22;44860;53.020;6.738;2023-08-06T14:13:36;23.00;90.50
59075;DHT22;44860;53.020;6.738;2023-08-06T14:16:01;22.80;91.10
59075;DHT22;44860;53.020;6.738;2023-08-06T14:18:27;22.60;90.00
59075;DHT22;44860;53.020;6.738;2023-08-06T14:20:53;22.50;91.20
59075;DHT22;44860;53.020;6.738;2023-08-06T14:23:19;22.40;91.60
59075;DHT22;44860;53.020;6.738;2023-08-06T14:25:45;22.30;91.40
59075;DHT22;44860;53.020;6.738;2023-08-06T14:28:11;22.20;92.00
59075;DHT22;44860;53.020;6.738;2023-08-06T14:30:37;22.10;92.40
59075;DHT22;44860;53.020;6.738;2023-08-06T14:33:03;22.00;92.80
59075;DHT22;44860;53.020;6.738;2023-08-06T14:35:29;22.00;94.10
59075;DHT22;44860;53.020;6.738;2023-08-06T14:37:54;21.90;95.30
59075;DHT22;44860;53.020;6.738;2023-08-06T14:40:20;21.90;95.50
59075;DHT22;44860;53.020;6.738;2023-08-06T14:42:46;21.80;95.50
59075;DHT22;44860;53.020;6.738;2023-08-06T14:45:11;21.80;96.20
59075;DHT22;44860;53.020;6.738;2023-08-06T14:47:37;21.90;96.40
59075;DHT22;44860;53.020;6.738;2023-08-06T14:50:03;21.90;95.90
59075;DHT22;44860;53.020;6.738;2023-08-06T14:52:29;21.80;96.00
59075;DHT22;44860;53.020;6.738;2023-08-06T14:54:55;21.70;95.60
59075;DHT22;44860;53.020;6.738;2023-08-06T14:57:21;21.70;95.90
59075;DHT22;44860;53.020;6.738;2023-08-06T14:59:53;21.70;96.20
59075;DHT22;44860;53.020;6.738;2023-08-06T15:02:20;21.70;96.70
59075;DHT22;44860;53.020;6.738;2023-08-06T15:04:46;21.80;97.50
59075;DHT22;44860;53.020;6.738;2023-08-06T15:07:13;21.90;95.90
59075;DHT22;44860;53.020;6.738;2023-08-06T15:09:38;22.10;95.20
59075;DHT22;44860;53.020;6.738;2023-08-06T15:12:05;22.20;93.20
59075;DHT22;44860;53.020;6.738;2023-08-06T15:14:31;22.30;91.50
59075;DHT22;44860;53.020;6.738;2023-08-06T15:16:56;22.30;91.30
59075;DHT22;44860;53.020;6.738;2023-08-06T15:19:24;22.40;92.30
59075;DHT22;44860;53.020;6.738;2023-08-06T15:21:50;22.40;91.80
59075;DHT22;44860;53.020;6.738;2023-08-06T15:24:16;22.50;93.20
59075;DHT22;44860;53.020;6.738;2023-08-06T15:26:41;22.60;91.80
59075;DHT22;44860;53.020;6.738;2023-08-06T15:29:07;22.60;92.10
59075;DHT22;44860;53.020;6.738;2023-08-06T15:31:37;22.60;91.30
59075;DHT22;44860;53.020;6.738;2023-08-06T15:34:05;22.60;90.90
59075;DHT22;44860;53.020;6.738;2023-08-06T15:36:32;22.60;90.40
59075;DHT22;44860;53.020;6.738;2023-08-06T15:38:57;22.60;91.50